Saturday, July 21, 2018, 9:07 PM EDT
Back to Local

KMPV, Knapp State Airport

Location: Barre, VT, United States Lat: 44.2
Local Time: 9:07 PM EDT ( 1:07 GMT) Lon: -72.567
Time Zone: US/Eastern Elev: 1164 ft

Show me the last for .
Show Decoded

2018-07-21 20:51 METAR KMPV 220051Z AUTO 17008KT 10SM CLR 21/13 A3015 RMK AO2 SLP206 T02060128 =
2018-07-21 19:51 METAR KMPV 212351Z AUTO 16008KT 10SM CLR 23/13 A3013 RMK AO2 SLP200 T02330133
                 10278 20228 53001 =
2018-07-21 18:51 METAR KMPV 212251Z AUTO 14010KT 10SM CLR 25/14 A3012 RMK AO2 SLP196 T02500139 $
                 =
2018-07-21 17:51 METAR KMPV 212151Z AUTO 16009KT 10SM CLR 26/12 A3012 RMK AO2 SLP198 T02610122 $
                 =
2018-07-21 16:51 METAR KMPV 212051Z AUTO 17012G15KT 10SM CLR 27/13 A3013 RMK AO2 SLP199 T02670133
                 56009 $ =
2018-07-21 15:51 METAR KMPV 211951Z AUTO 18011KT 10SM CLR 27/13 A3014 RMK AO2 SLP201 T02670133 $
                 =
2018-07-21 14:51 METAR KMPV 211851Z AUTO 13007KT 10SM CLR 27/13 A3014 RMK AO2 SLP203 T02720128 $
                 =
2018-07-21 13:51 METAR KMPV 211751Z AUTO 11007KT 10SM CLR 26/13 A3016 RMK AO2 SLP207 T02610133
                 10267 20172 58011 $ =
2018-07-21 12:51 METAR KMPV 211651Z AUTO 16009G15KT 10SM CLR 26/13 A3017 RMK AO2 SLP211 T02610128
                 $ =
2018-07-21 11:51 METAR KMPV 211551Z AUTO VRB04KT 10SM CLR 26/13 A3018 RMK AO2 SLP214 T02560128 $
                 =
2018-07-21 10:51 METAR KMPV 211451Z AUTO 00000KT 10SM CLR 23/15 A3019 RMK AO2 SLP219 T02330150
                 56006 $ =
2018-07-21 09:51 METAR KMPV 211351Z AUTO 10005KT 10SM CLR 22/16 A3019 RMK AO2 SLP220 T02220161 =
2018-07-21 08:51 METAR KMPV 211251Z AUTO 00000KT 10SM CLR 19/15 A3020 RMK AO2 SLP223 T01940150 =
2018-07-21 07:51 METAR KMPV 211151Z AUTO 05003KT 10SM CLR 17/15 A3021 RMK AO2 SLP225 T01720150
                 10178 20122 51003 =
2018-07-21 06:51 METAR KMPV 211051Z AUTO 00000KT 10SM CLR 16/14 A3020 RMK AO2 SLP224 T01610144 =
2018-07-21 05:51 METAR KMPV 210951Z AUTO 00000KT 10SM CLR 13/13 A3021 RMK AO2 SLP226 T01280128 =
2018-07-21 04:51 METAR KMPV 210851Z AUTO 00000KT 10SM CLR 13/13 A3020 RMK AO2 SLP223 T01330133
                 53003 =
2018-07-21 03:51 METAR KMPV 210751Z AUTO 00000KT 10SM CLR 14/13 A3018 RMK AO2 SLP216 T01390133 =
2018-07-21 02:51 METAR KMPV 210651Z AUTO 00000KT 10SM CLR 16/13 A3017 RMK AO2 SLP214 T01560133 =
2018-07-21 01:51 METAR KMPV 210551Z AUTO 00000KT 10SM CLR 17/14 A3019 RMK AO2 SLP217 T01720139
                 10250 20167 53003 =
2018-07-21 00:51 METAR KMPV 210451Z AUTO 21005KT 10SM CLR 19/14 A3018 RMK AO2 SLP216 T01890144
                 402890094 =
2018-07-20 23:51 METAR KMPV 210351Z AUTO 19005KT 10SM CLR 20/14 A3018 RMK AO2 SLP215 T02000144 =
2018-07-20 22:51 METAR KMPV 210251Z AUTO 17011KT 10SM CLR 21/14 A3018 RMK AO2 SLP214 T02110139
                 51008 =
2018-07-20 21:51 METAR KMPV 210151Z AUTO 18005KT 10SM CLR 22/13 A3018 RMK AO2 SLP215 T02170133 =

Support USWX by starting your Amazon purchase here.